createdAt,value
2018-09-16T00:00:07.531Z,9.80
2018-09-16T00:02:36.854Z,9.10
2018-09-16T00:05:06.940Z,10.03
2018-09-16T00:07:35.519Z,10.80
2018-09-16T00:10:03.808Z,11.13
2018-09-16T00:12:32.184Z,9.90
2018-09-16T00:15:00.532Z,9.90
2018-09-16T00:17:28.865Z,12.10
2018-09-16T00:19:57.161Z,8.67
2018-09-16T00:22:25.516Z,9.20
2018-09-16T00:24:53.775Z,10.50
2018-09-16T00:27:22.920Z,10.80
2018-09-16T00:29:51.246Z,9.00
2018-09-16T00:32:25.177Z,10.30
2018-09-16T00:35:00.002Z,12.70
2018-09-16T00:37:28.430Z,9.03
2018-09-16T00:39:56.965Z,10.90
2018-09-16T00:42:25.345Z,12.40
2018-09-16T00:44:53.663Z,11.40
2018-09-16T00:47:21.996Z,9.40
2018-09-16T00:49:50.635Z,13.23
2018-09-16T00:52:19.022Z,10.93
2018-09-16T00:54:47.773Z,13.33
2018-09-16T00:57:16.311Z,9.00
2018-09-16T00:59:44.688Z,9.70
2018-09-16T01:02:13.227Z,7.67
2018-09-16T01:04:41.865Z,8.07
2018-09-16T01:07:10.341Z,6.97
2018-09-16T01:09:38.925Z,10.20
2018-09-16T01:12:07.422Z,11.70
2018-09-16T01:14:35.735Z,8.73
2018-09-16T01:17:04.132Z,7.43
2018-09-16T01:19:32.435Z,9.10
2018-09-16T01:22:00.892Z,9.20
2018-09-16T01:24:29.424Z,9.10
2018-09-16T01:26:58.052Z,7.50
2018-09-16T01:29:26.551Z,10.33
2018-09-16T01:31:54.983Z,9.50
2018-09-16T01:34:23.314Z,7.00
2018-09-16T01:36:51.694Z,6.90
2018-09-16T01:39:20.666Z,10.30
2018-09-16T01:41:49.122Z,11.40
2018-09-16T01:44:17.490Z,8.23
2018-09-16T01:46:45.855Z,7.83
2018-09-16T01:49:14.219Z,10.97
2018-09-16T01:51:42.657Z,7.87
2018-09-16T01:54:11.163Z,7.70
2018-09-16T01:56:39.965Z,8.37
2018-09-16T01:59:08.263Z,9.80
2018-09-16T02:01:36.580Z,10.33
2018-09-16T02:04:05.406Z,9.73
2018-09-16T02:06:33.959Z,7.47
2018-09-16T02:09:02.499Z,10.77
2018-09-16T02:11:30.810Z,10.80
2018-09-16T02:13:59.190Z,6.60
2018-09-16T02:16:28.116Z,9.20
2018-09-16T02:18:56.406Z,7.97
2018-09-16T02:21:24.706Z,8.87
2018-09-16T02:23:53.286Z,7.97
2018-09-16T02:26:21.832Z,9.80
2018-09-16T02:28:50.266Z,7.87
2018-09-16T02:31:18.600Z,11.80
2018-09-16T02:33:47.006Z,8.73
2018-09-16T02:36:15.360Z,8.43
2018-09-16T02:38:43.733Z,7.47
2018-09-16T02:41:12.368Z,6.47
2018-09-16T02:43:41.001Z,8.60
2018-09-16T02:46:09.998Z,11.97
2018-09-16T02:48:38.296Z,7.97
2018-09-16T02:51:06.889Z,7.73
2018-09-16T02:53:35.204Z,9.93
2018-09-16T02:56:03.808Z,7.87
2018-09-16T02:58:32.270Z,11.33
2018-09-16T03:01:00.590Z,5.87
2018-09-16T03:03:28.866Z,7.47
2018-09-16T03:05:57.328Z,9.77
2018-09-16T03:08:25.850Z,5.77
2018-09-16T03:10:54.391Z,7.70
2018-09-16T03:13:22.986Z,8.00
2018-09-16T03:15:51.737Z,8.23
2018-09-16T03:18:20.227Z,7.60
2018-09-16T03:20:48.545Z,15.00
2018-09-16T03:23:16.997Z,7.73
2018-09-16T03:25:46.224Z,8.77
2018-09-16T03:28:15.065Z,6.73
2018-09-16T03:30:43.381Z,9.70
2018-09-16T03:33:12.087Z,6.53
2018-09-16T03:35:40.626Z,7.13
2018-09-16T03:38:08.949Z,10.87
2018-09-16T03:40:37.243Z,9.80
2018-09-16T03:43:05.502Z,6.97
2018-09-16T03:45:34.259Z,7.97
2018-09-16T03:48:02.594Z,9.63
2018-09-16T03:50:30.921Z,8.60
2018-09-16T03:52:59.279Z,10.20
2018-09-16T03:55:27.592Z,8.10
2018-09-16T03:57:55.878Z,11.70
2018-09-16T04:03:19.994Z,8.20
2018-09-16T04:05:48.348Z,10.17
2018-09-16T04:08:16.648Z,7.83
2018-09-16T04:10:44.970Z,6.63
2018-09-16T04:13:13.212Z,8.33
2018-09-16T04:15:41.563Z,10.47
2018-09-16T04:18:10.143Z,8.07
2018-09-16T04:20:38.490Z,6.43
2018-09-16T04:23:06.895Z,6.67
2018-09-16T04:25:35.639Z,6.33
2018-09-16T04:28:03.887Z,8.67
2018-09-16T04:30:32.199Z,5.83
2018-09-16T04:33:00.485Z,5.23
2018-09-16T04:35:28.962Z,8.23
2018-09-16T04:37:57.384Z,5.83
2018-09-16T04:40:26.095Z,5.20
2018-09-16T04:42:54.634Z,6.47
2018-09-16T04:45:22.980Z,7.40
2018-09-16T04:47:51.277Z,6.30
2018-09-16T04:50:19.929Z,6.60
2018-09-16T04:52:48.393Z,6.30
2018-09-16T04:55:16.751Z,6.83
2018-09-16T04:57:45.466Z,6.40
2018-09-16T05:00:13.973Z,7.57
2018-09-16T05:02:42.595Z,7.13
2018-09-16T05:05:11.263Z,10.50
2018-09-16T05:07:39.542Z,5.87
2018-09-16T05:10:07.879Z,6.80
2018-09-16T05:12:36.171Z,6.07
2018-09-16T05:15:04.608Z,8.97
2018-09-16T05:17:33.110Z,6.83
2018-09-16T05:20:01.582Z,8.27
2018-09-16T05:22:29.958Z,7.93
2018-09-16T05:24:58.233Z,10.50
2018-09-16T05:27:26.707Z,7.60
2018-09-16T05:29:55.579Z,6.23
2018-09-16T05:32:23.923Z,6.30
2018-09-16T05:34:52.276Z,5.93
2018-09-16T05:37:20.822Z,9.90
2018-09-16T05:39:49.156Z,6.80
2018-09-16T05:42:17.497Z,13.50
2018-09-16T05:44:45.774Z,5.37
2018-09-16T05:47:14.372Z,6.13
2018-09-16T05:49:42.679Z,5.77
2018-09-16T05:52:10.962Z,6.57
2018-09-16T05:54:39.325Z,6.10
2018-09-16T05:57:07.776Z,8.73
2018-09-16T05:59:36.124Z,12.90
2018-09-16T06:02:04.941Z,16.50
2018-09-16T06:04:33.473Z,19.50
2018-09-16T06:07:02.961Z,16.47
2018-09-16T06:09:31.282Z,13.90
2018-09-16T06:11:59.703Z,16.53
2018-09-16T06:14:28.796Z,13.57
2018-09-16T06:16:57.789Z,13.67
2018-09-16T06:19:26.189Z,10.90
2018-09-16T06:21:54.489Z,11.67
2018-09-16T06:24:22.888Z,8.97
2018-09-16T06:26:51.222Z,14.90
2018-09-16T06:29:19.560Z,8.00
2018-09-16T06:31:47.910Z,9.63
2018-09-16T06:34:16.227Z,7.87
2018-09-16T06:36:44.871Z,9.53
2018-09-16T06:39:14.786Z,7.43
2018-09-16T06:41:43.598Z,9.10
2018-09-16T06:44:12.153Z,10.90
2018-09-16T06:46:40.751Z,6.60
2018-09-16T06:49:09.097Z,8.00
2018-09-16T06:51:37.990Z,10.33
2018-09-16T06:54:06.369Z,6.47
2018-09-16T06:56:35.206Z,6.60
2018-09-16T06:59:03.720Z,7.67
2018-09-16T07:01:32.206Z,7.83
2018-09-16T07:04:00.705Z,9.67
2018-09-16T07:06:33.365Z,7.73
2018-09-16T07:09:02.081Z,10.40
2018-09-16T07:11:31.497Z,6.43
2018-09-16T07:14:00.192Z,9.27
2018-09-16T07:16:28.931Z,8.70
2018-09-16T07:18:57.274Z,4.70
2018-09-16T07:21:26.366Z,8.70
2018-09-16T07:23:55.020Z,5.87
2018-09-16T07:26:23.402Z,6.50
2018-09-16T07:28:51.714Z,7.70
2018-09-16T07:31:20.046Z,5.07
2018-09-16T07:33:48.703Z,9.43
2018-09-16T07:36:16.957Z,5.60
2018-09-16T07:38:45.267Z,8.20
2018-09-16T07:41:14.014Z,11.53
2018-09-16T07:43:42.477Z,7.00
2018-09-16T07:46:10.926Z,5.97
2018-09-16T07:48:39.239Z,17.10
2018-09-16T07:51:07.811Z,11.40
2018-09-16T07:53:36.196Z,6.03
2018-09-16T07:56:04.536Z,6.20
2018-09-16T07:58:33.299Z,5.77
2018-09-16T08:01:01.969Z,8.07
2018-09-16T08:03:30.376Z,4.70
2018-09-16T08:05:58.920Z,8.20
2018-09-16T08:08:27.523Z,6.47
2018-09-16T08:10:55.825Z,8.03
2018-09-16T08:13:24.100Z,8.90
2018-09-16T08:15:52.405Z,7.23
2018-09-16T08:18:20.726Z,5.87
2018-09-16T08:20:49.266Z,6.43
2018-09-16T08:23:17.618Z,6.37
2018-09-16T08:25:46.503Z,4.33
2018-09-16T08:28:14.793Z,8.57
2018-09-16T08:30:44.167Z,11.07
2018-09-16T08:33:13.152Z,8.23
2018-09-16T08:35:41.469Z,7.03
2018-09-16T08:38:09.967Z,8.40
2018-09-16T08:40:38.598Z,6.00
2018-09-16T08:43:07.591Z,12.97
2018-09-16T08:45:35.926Z,9.67
2018-09-16T08:48:04.223Z,7.67
2018-09-16T08:50:32.497Z,6.57
2018-09-16T08:53:00.794Z,6.90
2018-09-16T08:55:29.103Z,4.93
2018-09-16T08:57:57.660Z,8.83
2018-09-16T09:00:26.165Z,6.10
2018-09-16T09:02:54.562Z,8.93
2018-09-16T09:05:25.695Z,5.10
2018-09-16T09:07:56.550Z,6.67
2018-09-16T09:10:26.548Z,5.13
2018-09-16T09:12:55.118Z,7.77
2018-09-16T09:15:23.481Z,7.50
2018-09-16T09:17:52.320Z,5.80
2018-09-16T09:20:20.946Z,11.63
2018-09-16T09:22:49.217Z,6.60
2018-09-16T09:25:18.002Z,4.97
2018-09-16T09:27:46.319Z,12.33
2018-09-16T09:30:14.798Z,9.73
2018-09-16T09:32:46.552Z,7.43
2018-09-16T09:35:15.610Z,7.83
2018-09-16T09:37:45.882Z,7.80
2018-09-16T09:40:14.730Z,3.07
2018-09-16T09:42:45.612Z,10.40
2018-09-16T09:45:15.814Z,13.87
2018-09-16T09:47:45.836Z,6.43
2018-09-16T09:50:14.420Z,3.30
2018-09-16T09:52:42.760Z,12.47
2018-09-16T09:55:12.297Z,7.13
2018-09-16T09:57:41.146Z,8.67
2018-09-16T10:00:09.503Z,12.07
2018-09-16T10:02:38.459Z,7.93
2018-09-16T10:05:08.686Z,5.67
2018-09-16T10:07:37.007Z,8.63
2018-09-16T10:10:05.540Z,7.90
2018-09-16T10:12:34.741Z,12.83
2018-09-16T10:15:03.281Z,4.40
2018-09-16T10:17:31.799Z,7.60
2018-09-16T10:20:00.449Z,9.50
2018-09-16T10:22:28.854Z,6.40
2018-09-16T10:24:58.022Z,10.40
2018-09-16T10:27:26.636Z,8.70
2018-09-16T10:29:54.952Z,4.03
2018-09-16T10:32:23.362Z,11.73
2018-09-16T10:34:52.991Z,11.33
2018-09-16T10:37:21.324Z,7.43
2018-09-16T10:39:49.832Z,4.97
2018-09-16T10:42:19.898Z,6.77
2018-09-16T10:44:54.900Z,5.07
2018-09-16T10:47:23.251Z,8.00
2018-09-16T10:49:52.118Z,4.93
2018-09-16T10:52:20.677Z,5.00
2018-09-16T10:54:50.129Z,5.13
2018-09-16T10:57:21.100Z,7.23
2018-09-16T10:59:49.775Z,6.20
2018-09-16T11:02:20.437Z,4.23
2018-09-16T11:04:49.118Z,3.77
2018-09-16T11:07:19.005Z,10.13
2018-09-16T11:09:48.719Z,12.17
2018-09-16T11:12:17.454Z,5.93
2018-09-16T11:14:48.285Z,8.80
2018-09-16T11:17:17.314Z,4.17
2018-09-16T11:19:45.851Z,7.20
2018-09-16T11:22:14.266Z,4.47
2018-09-16T11:24:42.998Z,6.23
2018-09-16T11:27:11.386Z,5.13
2018-09-16T11:29:39.830Z,4.63
2018-09-16T11:32:08.161Z,8.00
2018-09-16T11:34:36.901Z,3.50
2018-09-16T11:37:09.253Z,4.87
2018-09-16T11:39:37.655Z,3.10
2018-09-16T11:42:06.559Z,2.93
2018-09-16T11:44:36.026Z,3.87
2018-09-16T11:47:06.329Z,5.23
2018-09-16T11:49:35.431Z,2.13
2018-09-16T11:52:03.988Z,7.30
2018-09-16T11:54:33.674Z,8.13
2018-09-16T11:57:06.074Z,6.20
2018-09-16T11:59:35.364Z,5.23
2018-09-16T12:02:05.988Z,5.60
2018-09-16T12:04:34.294Z,5.67
2018-09-16T12:07:03.194Z,3.83
2018-09-16T12:09:31.644Z,5.90
2018-09-16T12:12:02.893Z,6.80
2018-09-16T12:14:31.503Z,6.37
2018-09-16T12:17:00.953Z,4.67
2018-09-16T12:19:29.957Z,3.90
2018-09-16T12:21:58.939Z,5.63
2018-09-16T12:24:27.217Z,5.23
2018-09-16T12:26:55.519Z,5.20
2018-09-16T12:29:24.292Z,5.70
2018-09-16T12:31:52.988Z,2.70
2018-09-16T12:34:21.294Z,6.43
2018-09-16T12:36:50.976Z,5.97
2018-09-16T12:39:19.296Z,5.87
2018-09-16T12:41:47.802Z,9.10
2018-09-16T12:44:16.221Z,4.73
2018-09-16T12:46:45.451Z,4.33
2018-09-16T12:49:15.458Z,6.30
2018-09-16T12:51:43.914Z,4.40
2018-09-16T12:54:13.087Z,4.37
2018-09-16T12:56:41.708Z,3.97
2018-09-16T12:59:10.308Z,8.30
2018-09-16T13:01:38.859Z,3.93
2018-09-16T13:04:08.123Z,6.87
2018-09-16T13:06:36.654Z,4.53
2018-09-16T13:09:08.503Z,4.07
2018-09-16T13:11:36.980Z,3.23
2018-09-16T13:14:05.414Z,3.90
2018-09-16T13:16:34.416Z,4.23
2018-09-16T13:19:03.402Z,4.97
2018-09-16T13:21:31.776Z,4.70
2018-09-16T13:24:00.168Z,5.87
2018-09-16T13:26:30.133Z,4.80
2018-09-16T13:28:58.463Z,5.40
2018-09-16T13:31:26.830Z,4.23
2018-09-16T13:33:55.773Z,3.80
2018-09-16T13:36:25.037Z,3.77
2018-09-16T13:38:53.777Z,5.83
2018-09-16T13:41:24.209Z,5.50
2018-09-16T13:43:53.677Z,7.77
2018-09-16T13:46:22.781Z,6.43
2018-09-16T13:48:52.111Z,3.87
2018-09-16T13:51:21.923Z,8.93
2018-09-16T13:53:50.559Z,3.53
2018-09-16T13:56:19.490Z,5.53
2018-09-16T13:58:50.502Z,3.87
2018-09-16T14:01:18.876Z,4.00
2018-09-16T14:03:47.578Z,4.00
2018-09-16T14:06:18.018Z,6.07
2018-09-16T14:08:46.469Z,6.50
2018-09-16T14:11:14.852Z,7.33
2018-09-16T14:13:46.257Z,5.53
2018-09-16T14:16:15.902Z,3.73
2018-09-16T14:18:47.749Z,8.73
2018-09-16T14:21:18.086Z,5.80
2018-09-16T14:23:48.513Z,9.13
2018-09-16T14:26:18.909Z,2.70
2018-09-16T14:28:47.291Z,4.13
2018-09-16T14:31:15.795Z,6.47
2018-09-16T14:33:44.903Z,7.30
2018-09-16T14:36:13.363Z,3.70
2018-09-16T14:38:44.322Z,12.33
2018-09-16T14:41:14.212Z,2.40
2018-09-16T14:43:44.145Z,5.60
2018-09-16T14:46:13.051Z,2.80
2018-09-16T14:48:41.989Z,4.83
2018-09-16T14:51:10.788Z,4.50
2018-09-16T14:53:39.501Z,4.97
2018-09-16T14:56:08.240Z,5.50
2018-09-16T14:58:36.858Z,7.37
2018-09-16T15:01:07.426Z,6.27
2018-09-16T15:03:36.413Z,9.80
2018-09-16T15:06:06.440Z,6.73
2018-09-16T15:08:36.352Z,6.50
2018-09-16T15:11:07.032Z,5.80
2018-09-16T15:13:36.841Z,3.80
2018-09-16T15:16:05.653Z,3.50
2018-09-16T15:18:34.253Z,5.43
2018-09-16T15:21:02.684Z,2.90
2018-09-16T15:23:32.517Z,7.97
2018-09-16T15:26:01.447Z,6.23
2018-09-16T15:28:30.109Z,2.80
2018-09-16T15:30:59.335Z,4.40
2018-09-16T15:33:28.970Z,7.60
2018-09-16T15:35:57.461Z,3.90
2018-09-16T15:38:25.786Z,10.70
2018-09-16T15:40:54.591Z,15.67
2018-09-16T15:43:23.889Z,11.10
2018-09-16T15:45:52.582Z,5.33
2018-09-16T15:48:21.862Z,6.40
2018-09-16T15:50:51.850Z,6.50
2018-09-16T15:53:20.859Z,14.53
2018-09-16T15:55:49.452Z,4.50
2018-09-16T15:58:17.758Z,21.77
2018-09-16T16:00:46.876Z,5.70
2018-09-16T16:03:17.622Z,21.80
2018-09-16T16:05:46.553Z,15.53
2018-09-16T16:08:15.827Z,9.33
2018-09-16T16:10:45.136Z,6.83
2018-09-16T16:13:14.554Z,7.17
2018-09-16T16:15:43.466Z,5.70
2018-09-16T16:18:11.914Z,9.23
2018-09-16T16:20:42.483Z,2.93
2018-09-16T16:23:11.471Z,7.27
2018-09-16T16:25:40.238Z,9.70
2018-09-16T16:28:08.803Z,4.20
2018-09-16T16:30:41.770Z,3.77
2018-09-16T16:33:10.753Z,3.33
2018-09-16T16:35:39.736Z,6.43
2018-09-16T16:38:09.836Z,8.30
2018-09-16T16:40:41.588Z,7.00
2018-09-16T16:43:11.989Z,3.43
2018-09-16T16:45:44.847Z,7.50
2018-09-16T16:48:14.039Z,8.13
2018-09-16T16:50:42.727Z,10.10
2018-09-16T16:53:13.208Z,11.40
2018-09-16T16:55:43.630Z,10.83
2018-09-16T16:58:11.977Z,12.50
2018-09-16T17:00:41.035Z,7.90
2018-09-16T17:03:12.547Z,11.23
2018-09-16T17:05:44.108Z,18.77
2018-09-16T17:08:12.496Z,16.00
2018-09-16T17:10:42.910Z,20.80
2018-09-16T17:13:16.013Z,18.10
2018-09-16T17:15:45.075Z,17.63
2018-09-16T17:18:13.375Z,11.60
2018-09-16T17:20:49.598Z,17.20
2018-09-16T17:23:24.451Z,10.03
2018-09-16T17:25:53.848Z,9.43
2018-09-16T17:28:23.151Z,12.43
2018-09-16T17:30:52.089Z,13.20
2018-09-16T17:33:21.068Z,10.90
2018-09-16T17:35:49.533Z,14.10
2018-09-16T17:38:17.940Z,12.40
2018-09-16T17:40:47.368Z,15.27
2018-09-16T17:43:15.747Z,27.27
2018-09-16T17:45:44.618Z,14.37
2018-09-16T17:48:13.434Z,17.80
2018-09-16T17:50:42.654Z,13.97
2018-09-16T17:53:13.392Z,21.60
2018-09-16T17:55:42.736Z,13.00
2018-09-16T17:58:13.332Z,17.30
2018-09-16T18:00:41.867Z,14.50
2018-09-16T18:03:12.481Z,11.83
2018-09-16T18:05:41.702Z,16.70
2018-09-16T18:10:44.650Z,20.23
2018-09-16T18:13:14.860Z,20.43
2018-09-16T18:15:45.201Z,16.27
2018-09-16T18:18:15.429Z,13.07
2018-09-16T18:20:46.572Z,21.17
2018-09-16T18:23:17.157Z,17.23
2018-09-16T18:25:50.609Z,23.43
2018-09-16T18:28:21.332Z,16.00
2018-09-16T18:30:53.408Z,17.70
2018-09-16T18:33:25.223Z,16.97
2018-09-16T18:36:00.071Z,15.00
2018-09-16T18:38:30.583Z,17.53
2018-09-16T18:41:00.201Z,15.67
2018-09-16T18:43:32.858Z,16.30
2018-09-16T18:46:03.451Z,16.67
2018-09-16T18:48:36.089Z,19.63
2018-09-16T18:51:06.714Z,12.70
2018-09-16T18:53:36.794Z,10.60
2018-09-16T18:56:07.749Z,16.60
2018-09-16T18:58:37.302Z,19.30
2018-09-16T19:01:05.962Z,12.80
2018-09-16T19:03:36.697Z,18.37
2018-09-16T19:06:11.866Z,13.70
2018-09-16T19:08:42.893Z,19.07
2018-09-16T19:11:15.387Z,11.43
2018-09-16T19:13:46.414Z,16.10
2018-09-16T19:16:17.549Z,13.47
2018-09-16T19:18:46.709Z,21.40
2018-09-16T19:21:16.196Z,12.50
2018-09-16T19:23:45.050Z,14.30
2018-09-16T19:26:14.843Z,19.70
2018-09-16T19:28:44.767Z,19.10
2018-09-16T19:31:15.299Z,21.77
2018-09-16T19:33:45.400Z,16.53
2018-09-16T19:36:14.625Z,22.10
2018-09-16T19:38:45.567Z,17.20
2018-09-16T19:41:15.338Z,22.33
2018-09-16T19:43:44.947Z,12.70
2018-09-16T19:46:13.898Z,26.40
2018-09-16T19:48:42.659Z,24.73
2018-09-16T19:51:12.456Z,19.10
2018-09-16T19:53:41.681Z,23.33
2018-09-16T19:56:11.686Z,14.83
2018-09-16T19:58:40.444Z,23.33
2018-09-16T20:01:09.128Z,20.63
2018-09-16T20:03:38.918Z,19.33
2018-09-16T20:06:08.049Z,24.20
2018-09-16T20:08:37.087Z,14.67
2018-09-16T20:11:06.717Z,20.97
2018-09-16T20:13:35.867Z,17.77
2018-09-16T20:16:05.775Z,15.40
2018-09-16T20:18:34.742Z,24.00
2018-09-16T20:21:03.091Z,19.97
2018-09-16T20:23:31.829Z,18.90
2018-09-16T20:26:02.441Z,18.50
2018-09-16T20:28:30.926Z,18.77
2018-09-16T20:30:59.417Z,18.17
2018-09-16T20:33:27.796Z,21.00
2018-09-16T20:35:56.174Z,22.93
2018-09-16T20:38:25.244Z,16.30
2018-09-16T20:40:55.280Z,24.10
2018-09-16T20:43:24.254Z,22.53
2018-09-16T20:45:53.129Z,23.17
2018-09-16T20:48:21.750Z,17.97
2018-09-16T20:50:50.354Z,22.73
2018-09-16T20:53:19.017Z,21.37
2018-09-16T20:55:49.723Z,16.00
2018-09-16T20:58:18.135Z,31.60
2018-09-16T21:00:46.665Z,18.37
2018-09-16T21:03:17.373Z,23.23
2018-09-16T21:05:55.294Z,21.30
2018-09-16T21:08:25.909Z,14.23
2018-09-16T21:10:55.184Z,19.97
2018-09-16T21:13:23.480Z,25.80
2018-09-16T21:15:51.818Z,27.27
2018-09-16T21:18:20.447Z,22.00
2018-09-16T21:20:50.947Z,24.80
2018-09-16T21:23:19.335Z,19.17
2018-09-16T21:25:51.330Z,19.10
2018-09-16T21:28:20.106Z,17.20
2018-09-16T21:30:48.977Z,22.13
2018-09-16T21:33:18.697Z,16.30
2018-09-16T21:35:47.178Z,14.43
2018-09-16T21:38:15.566Z,17.97
2018-09-16T21:40:43.932Z,19.10
2018-09-16T21:43:13.843Z,16.40
2018-09-16T21:45:42.556Z,26.37
2018-09-16T21:48:12.404Z,19.67
2018-09-16T21:50:42.074Z,22.87
2018-09-16T21:53:12.011Z,12.93
2018-09-16T21:55:41.206Z,19.20
2018-09-16T21:58:10.259Z,15.03
2018-09-16T22:00:38.747Z,14.97
2018-09-16T22:03:06.920Z,16.87
2018-09-16T22:05:36.835Z,17.70
2018-09-16T22:08:06.455Z,21.13
2018-09-16T22:10:35.221Z,17.13
2018-09-16T22:13:03.914Z,19.20
2018-09-16T22:15:35.252Z,14.20
2018-09-16T22:18:05.680Z,13.63
2018-09-16T22:20:38.170Z,14.70
2018-09-16T22:23:08.446Z,13.03
2018-09-16T22:25:39.158Z,12.50
2018-09-16T22:28:09.551Z,14.93
2018-09-16T22:30:39.157Z,14.53
2018-09-16T22:33:09.383Z,10.23
2018-09-16T22:35:38.275Z,16.17
2018-09-16T22:38:06.831Z,12.40
2018-09-16T22:40:35.198Z,13.53
2018-09-16T22:43:34.506Z,19.30
2018-09-16T22:46:03.022Z,12.77
2018-09-16T22:48:31.367Z,11.67
2018-09-16T22:50:59.698Z,16.47
2018-09-16T22:53:28.523Z,11.67
2018-09-16T22:55:57.662Z,11.73
2018-09-16T22:58:26.425Z,14.20
2018-09-16T23:00:55.024Z,14.90
2018-09-16T23:03:24.571Z,12.30
2018-09-16T23:05:53.249Z,11.23
2018-09-16T23:08:21.685Z,12.80
2018-09-16T23:10:50.595Z,16.30
2018-09-16T23:13:18.940Z,16.40
2018-09-16T23:15:47.444Z,17.57
2018-09-16T23:18:15.741Z,13.93
2018-09-16T23:20:44.086Z,13.50
2018-09-16T23:23:13.625Z,18.73
2018-09-16T23:25:42.297Z,16.50
2018-09-16T23:28:10.618Z,10.10
2018-09-16T23:30:39.002Z,14.33
2018-09-16T23:33:07.367Z,11.23
2018-09-16T23:35:36.815Z,13.77
2018-09-16T23:38:06.286Z,14.73
2018-09-16T23:40:34.822Z,13.20
2018-09-16T23:43:03.366Z,14.57
2018-09-16T23:45:31.944Z,16.00
2018-09-16T23:48:01.451Z,20.00
2018-09-16T23:50:30.248Z,16.60
2018-09-16T23:52:58.760Z,15.00
2018-09-16T23:55:27.632Z,15.63
2018-09-16T23:57:56.033Z,19.63
